createdAt,value
2019-04-28T00:01:49.148Z,9.32
2019-04-28T00:04:16.192Z,9.30
2019-04-28T00:06:49.373Z,9.32
2019-04-28T00:09:19.148Z,9.36
2019-04-28T00:11:46.118Z,9.34
2019-04-28T00:14:19.465Z,9.31
2019-04-28T00:20:35.915Z,9.37
2019-04-28T00:23:12.854Z,9.31
2019-04-28T00:25:44.052Z,9.35
2019-04-28T00:28:12.199Z,9.33
2019-04-28T00:30:39.160Z,9.36
2019-04-28T00:33:06.140Z,9.37
2019-04-28T00:35:35.251Z,9.33
2019-04-28T00:38:01.968Z,9.29
2019-04-28T00:40:31.662Z,9.27
2019-04-28T00:46:41.067Z,9.31
2019-04-28T00:49:08.134Z,9.34
2019-04-28T00:51:35.067Z,9.36
2019-04-28T00:54:02.037Z,9.35
2019-04-28T00:56:28.977Z,9.38
2019-04-28T00:58:55.898Z,9.37
2019-04-28T01:01:33.070Z,9.36
2019-04-28T01:04:02.215Z,9.33
2019-04-28T01:06:29.108Z,9.31
2019-04-28T01:08:56.100Z,9.28
2019-04-28T01:11:23.123Z,9.26
2019-04-28T01:13:51.790Z,9.27
2019-04-28T01:16:25.570Z,9.24
2019-04-28T01:19:04.478Z,9.23
2019-04-28T01:22:10.279Z,9.20
2019-04-28T01:24:39.752Z,9.19
2019-04-28T01:27:10.889Z,9.16
2019-04-28T01:29:37.893Z,9.17
2019-04-28T01:32:25.039Z,9.16
2019-04-28T01:34:51.999Z,9.15
2019-04-28T01:37:19.642Z,9.10
2019-04-28T01:39:46.713Z,9.10
2019-04-28T01:42:13.675Z,9.10
2019-04-28T01:45:23.622Z,9.06
2019-04-28T01:47:50.599Z,9.07
2019-04-28T01:50:17.528Z,9.01
2019-04-28T01:52:46.265Z,9.05
2019-04-28T01:55:13.243Z,9.02
2019-04-28T01:57:40.254Z,9.02
2019-04-28T02:00:25.436Z,9.03
2019-04-28T02:02:51.530Z,9.01
2019-04-28T02:05:19.691Z,9.03
2019-04-28T02:07:46.849Z,9.07
2019-04-28T02:10:13.871Z,9.02
2019-04-28T02:12:40.790Z,9.04
2019-04-28T02:15:10.047Z,9.07
2019-04-28T02:17:40.005Z,9.06
2019-04-28T02:20:07.143Z,9.09
2019-04-28T02:22:53.741Z,9.11
2019-04-28T02:25:21.403Z,9.13
2019-04-28T02:27:49.942Z,9.12
2019-04-28T02:30:17.029Z,9.09
2019-04-28T02:32:43.958Z,9.12
2019-04-28T02:35:11.036Z,9.11
2019-04-28T02:37:40.831Z,9.16
2019-04-28T02:40:10.688Z,9.14
2019-04-28T02:42:45.039Z,9.11
2019-04-28T02:45:17.409Z,9.17
2019-04-28T02:47:44.355Z,9.18
2019-04-28T02:50:36.112Z,9.15
2019-04-28T02:53:15.636Z,9.10
2019-04-28T02:55:42.614Z,9.12
2019-04-28T02:58:13.416Z,9.12
2019-04-28T03:00:41.202Z,9.11
2019-04-28T03:03:11.040Z,9.09
2019-04-28T03:06:01.144Z,9.16
2019-04-28T03:08:27.571Z,9.14
2019-04-28T03:10:54.481Z,9.09
2019-04-28T03:13:21.405Z,9.03
2019-04-28T03:15:51.258Z,9.03
2019-04-28T03:18:17.253Z,9.03
2019-04-28T03:20:44.170Z,8.98
2019-04-28T03:23:12.379Z,8.98
2019-04-28T03:26:01.729Z,8.89
2019-04-28T03:28:51.519Z,8.85
2019-04-28T03:31:50.877Z,8.76
2019-04-28T03:33:56.323Z,8.72
2019-04-28T03:36:24.542Z,8.66
2019-04-28T03:38:53.193Z,8.56
2019-04-28T03:41:21.164Z,8.49
2019-04-28T03:43:51.290Z,8.43
2019-04-28T03:46:22.814Z,8.38
2019-04-28T03:48:50.865Z,8.25
2019-04-28T03:51:20.944Z,8.21
2019-04-28T03:53:47.136Z,8.17
2019-04-28T03:56:20.897Z,8.08
2019-04-28T03:58:50.278Z,8.10
2019-04-28T04:01:20.753Z,8.12
2019-04-28T04:03:47.694Z,8.10
2019-04-28T04:06:42.415Z,8.02
2019-04-28T04:09:11.234Z,7.93
2019-04-28T04:11:43.312Z,7.85
2019-04-28T04:14:21.004Z,7.77
2019-04-28T04:16:52.399Z,7.75
2019-04-28T04:19:20.345Z,7.71
2019-04-28T04:21:50.559Z,7.70
2019-04-28T04:24:16.373Z,7.68
2019-04-28T04:26:43.299Z,7.61
2019-04-28T04:29:10.341Z,7.57
2019-04-28T04:32:33.852Z,7.53
2019-04-28T04:35:02.993Z,7.56
2019-04-28T04:37:30.801Z,7.52
2019-04-28T04:39:57.927Z,7.55
2019-04-28T04:42:25.016Z,7.52
2019-04-28T04:44:51.971Z,7.54
2019-04-28T04:47:21.062Z,7.55
2019-04-28T04:49:50.331Z,7.56
2019-04-28T04:52:20.329Z,7.55
2019-04-28T04:54:47.046Z,7.57
2019-04-28T04:57:32.723Z,7.61
2019-04-28T05:00:01.156Z,7.65
2019-04-28T05:03:00.788Z,7.67
2019-04-28T05:05:34.450Z,7.71
2019-04-28T05:08:01.418Z,7.80
2019-04-28T05:10:30.317Z,7.90
2019-04-28T05:12:57.290Z,7.97
2019-04-28T05:15:24.284Z,8.08
2019-04-28T05:18:10.116Z,8.18
2019-04-28T05:20:37.435Z,8.25
2019-04-28T05:23:33.187Z,8.32
2019-04-28T05:26:01.548Z,8.38
2019-04-28T05:28:32.317Z,8.41
2019-04-28T05:30:59.980Z,8.43
2019-04-28T05:33:30.741Z,8.42
2019-04-28T05:36:01.055Z,8.44
2019-04-28T05:38:25.247Z,8.45
2019-04-28T05:41:33.205Z,8.46
2019-04-28T05:44:00.139Z,8.46
2019-04-28T05:46:27.072Z,8.45
2019-04-28T05:49:25.525Z,8.44
2019-04-28T05:51:54.709Z,8.46
2019-04-28T05:54:40.361Z,8.46
2019-04-28T05:57:23.671Z,8.47
2019-04-28T06:00:03.343Z,8.50
2019-04-28T06:02:36.715Z,8.54
2019-04-28T06:05:04.038Z,8.55
2019-04-28T06:07:49.409Z,8.56
2019-04-28T06:10:16.571Z,8.57
2019-04-28T06:12:43.574Z,8.58
2019-04-28T06:15:11.994Z,8.60
2019-04-28T06:17:39.757Z,8.65
2019-04-28T06:20:07.014Z,8.70
2019-04-28T06:22:33.990Z,8.76
2019-04-28T06:25:00.930Z,8.79
2019-04-28T06:27:32.564Z,8.85
2019-04-28T06:29:58.571Z,8.90
2019-04-28T06:32:25.529Z,8.94
2019-04-28T06:34:53.696Z,8.99
2019-04-28T06:37:20.646Z,9.03
2019-04-28T06:39:47.626Z,9.12
2019-04-28T06:42:14.604Z,9.07
2019-04-28T06:44:41.580Z,9.07
2019-04-28T06:47:08.652Z,9.08
2019-04-28T06:49:35.681Z,9.11
2019-04-28T06:52:02.621Z,9.15
2019-04-28T06:54:29.575Z,9.14
2019-04-28T06:56:56.545Z,9.17
2019-04-28T06:59:23.475Z,9.30
2019-04-28T07:01:50.479Z,9.46
2019-04-28T07:04:17.542Z,9.66
2019-04-28T07:06:44.602Z,9.75
2019-04-28T07:09:11.669Z,9.83
2019-04-28T07:11:38.717Z,9.90
2019-04-28T07:14:05.655Z,9.92
2019-04-28T07:16:32.629Z,9.87
2019-04-28T07:18:59.683Z,9.75
2019-04-28T07:21:38.083Z,9.67
2019-04-28T07:24:05.037Z,9.52
2019-04-28T07:26:36.832Z,9.56
2019-04-28T07:29:03.821Z,9.60
2019-04-28T07:31:32.638Z,9.79
2019-04-28T07:33:59.721Z,9.91
2019-04-28T07:36:26.727Z,10.11
2019-04-28T07:38:53.854Z,10.13
2019-04-28T07:41:20.819Z,10.22
2019-04-28T07:43:47.832Z,10.33
2019-04-28T07:46:14.790Z,10.47
2019-04-28T07:48:41.851Z,10.41
2019-04-28T07:51:10.148Z,10.46
2019-04-28T07:53:47.609Z,10.62
2019-04-28T07:56:14.562Z,10.75
2019-04-28T07:58:41.577Z,10.65
2019-04-28T08:01:11.247Z,10.81
2019-04-28T08:03:48.744Z,11.03
2019-04-28T08:06:07.166Z,11.14
2019-04-28T08:08:34.326Z,11.12
2019-04-28T08:11:01.308Z,11.11
2019-04-28T08:13:28.291Z,11.05
2019-04-28T08:15:56.410Z,10.90
2019-04-28T08:18:23.449Z,10.84
2019-04-28T08:20:50.398Z,10.62
2019-04-28T08:23:17.394Z,10.50
2019-04-28T08:25:44.475Z,10.35
2019-04-28T08:28:11.451Z,10.24
2019-04-28T08:30:38.428Z,10.11
2019-04-28T08:33:25.324Z,10.08
2019-04-28T08:35:52.325Z,10.17
2019-04-28T08:38:19.343Z,10.24
2019-04-28T08:40:46.412Z,10.45
2019-04-28T08:43:13.368Z,10.72
2019-04-28T08:45:40.344Z,11.01
2019-04-28T08:48:07.291Z,11.13
2019-04-28T08:50:34.685Z,11.16
2019-04-28T08:53:01.830Z,11.05
2019-04-28T08:55:28.776Z,11.02
2019-04-28T08:57:55.846Z,11.04
2019-04-28T09:00:23.261Z,11.00
2019-04-28T09:02:50.351Z,11.18
2019-04-28T09:05:19.439Z,11.35
2019-04-28T09:07:46.504Z,11.58
2019-04-28T09:10:13.570Z,11.59
2019-04-28T09:12:40.585Z,11.41
2019-04-28T09:15:08.064Z,11.32
2019-04-28T09:17:35.134Z,11.32
2019-04-28T09:20:02.105Z,11.41
2019-04-28T09:22:29.107Z,11.55
2019-04-28T09:24:56.183Z,11.68
2019-04-28T09:27:32.978Z,11.74
2019-04-28T09:29:59.967Z,11.86
2019-04-28T09:32:26.944Z,11.75
2019-04-28T09:35:13.475Z,11.89
2019-04-28T09:37:40.460Z,12.10
2019-04-28T09:40:11.672Z,12.26
2019-04-28T09:42:49.317Z,12.29
2019-04-28T09:45:22.273Z,12.18
2019-04-28T09:47:49.241Z,12.12
2019-04-28T09:50:16.175Z,12.09
2019-04-28T09:52:43.403Z,11.90
2019-04-28T09:55:10.663Z,11.92
2019-04-28T09:57:37.639Z,11.95
2019-04-28T10:00:33.744Z,11.96
2019-04-28T10:03:00.704Z,11.91
2019-04-28T10:05:27.661Z,12.00
2019-04-28T10:07:54.697Z,12.21
2019-04-28T10:10:21.641Z,12.47
2019-04-28T10:13:06.844Z,12.74
2019-04-28T10:15:33.804Z,12.93
2019-04-28T10:18:00.781Z,12.85
2019-04-28T10:20:29.572Z,12.63
2019-04-28T10:22:56.513Z,12.46
2019-04-28T10:25:23.503Z,12.38
2019-04-28T10:27:50.484Z,12.15
2019-04-28T10:30:17.649Z,12.01
2019-04-28T10:32:44.628Z,11.96
2019-04-28T10:35:11.767Z,11.84
2019-04-28T10:37:40.531Z,11.85
2019-04-28T10:40:21.471Z,11.85
2019-04-28T10:42:48.491Z,11.83
2019-04-28T10:45:19.530Z,11.85
2019-04-28T10:47:46.942Z,11.83
2019-04-28T10:50:14.050Z,11.82
2019-04-28T10:52:41.146Z,11.78
2019-04-28T10:55:08.768Z,11.81
2019-04-28T10:57:35.718Z,11.75
2019-04-28T11:00:03.687Z,11.60
2019-04-28T11:02:30.702Z,11.49
2019-04-28T11:05:11.969Z,11.32
2019-04-28T11:07:40.260Z,11.26
2019-04-28T11:10:11.958Z,11.25
2019-04-28T11:12:38.917Z,11.19
2019-04-28T11:15:09.095Z,11.27
2019-04-28T11:17:40.447Z,11.41
2019-04-28T11:20:07.597Z,11.67
2019-04-28T11:22:34.677Z,11.87
2019-04-28T11:25:01.611Z,11.98
2019-04-28T11:27:28.790Z,12.00
2019-04-28T11:29:55.803Z,12.02
2019-04-28T11:32:22.842Z,12.03
2019-04-28T11:34:59.281Z,12.05
2019-04-28T11:37:26.280Z,12.02
2019-04-28T11:39:53.393Z,11.94
2019-04-28T11:44:57.882Z,11.89
2019-04-28T11:47:25.158Z,11.96
2019-04-28T11:49:52.142Z,12.11
2019-04-28T11:52:19.102Z,12.06
2019-04-28T11:54:46.048Z,12.17
2019-04-28T11:57:13.051Z,12.24
2019-04-28T11:59:40.551Z,12.45
2019-04-28T12:02:07.822Z,12.66
2019-04-28T12:04:34.768Z,12.83
2019-04-28T12:07:01.751Z,13.12
2019-04-28T12:09:46.611Z,13.29
2019-04-28T12:12:35.830Z,13.43
2019-04-28T12:15:25.374Z,13.66
2019-04-28T12:18:27.084Z,13.72
2019-04-28T12:20:54.063Z,13.72
2019-04-28T12:23:21.062Z,13.82
2019-04-28T12:25:47.983Z,14.00
2019-04-28T12:28:14.984Z,13.99
2019-04-28T12:30:41.961Z,14.07
2019-04-28T12:33:09.002Z,14.15
2019-04-28T12:35:47.047Z,14.19
2019-04-28T12:38:04.941Z,14.09
2019-04-28T12:40:31.865Z,13.89
2019-04-28T12:42:59.924Z,13.75
2019-04-28T12:45:34.774Z,13.78
2019-04-28T12:47:55.919Z,14.06
2019-04-28T12:50:28.207Z,14.30
2019-04-28T12:52:55.165Z,14.68
2019-04-28T12:55:22.149Z,14.91
2019-04-28T12:57:49.189Z,15.04
2019-04-28T13:00:45.202Z,15.29
2019-04-28T13:03:34.513Z,15.36
2019-04-28T13:06:05.883Z,15.48
2019-04-28T13:08:33.183Z,15.49
2019-04-28T13:11:00.122Z,15.53
2019-04-28T13:13:27.252Z,15.40
2019-04-28T13:15:54.195Z,15.40
2019-04-28T13:18:21.277Z,15.32
2019-04-28T13:20:48.312Z,15.32
2019-04-28T13:23:15.507Z,15.32
2019-04-28T13:25:42.721Z,15.28
2019-04-28T13:28:09.685Z,15.32
2019-04-28T13:30:36.668Z,15.61
2019-04-28T13:33:03.624Z,16.28
2019-04-28T13:35:30.895Z,17.51
2019-04-28T13:37:57.857Z,18.71
2019-04-28T13:40:29.691Z,19.37
2019-04-28T13:42:56.654Z,19.54
2019-04-28T13:45:24.312Z,19.29
2019-04-28T13:47:51.262Z,19.11
2019-04-28T13:50:48.977Z,18.28
2019-04-28T13:53:16.331Z,17.44
2019-04-28T13:56:00.934Z,16.90
2019-04-28T13:58:37.176Z,16.79
2019-04-28T14:01:14.834Z,16.31
2019-04-28T14:04:24.270Z,16.09
2019-04-28T14:06:55.356Z,15.91
2019-04-28T14:09:22.426Z,15.65
2019-04-28T14:11:49.627Z,15.56
2019-04-28T14:14:16.628Z,15.56
2019-04-28T14:16:43.671Z,15.52
2019-04-28T14:19:10.601Z,15.46
2019-04-28T14:21:37.597Z,15.52
2019-04-28T14:24:04.542Z,15.61
2019-04-28T14:26:31.584Z,15.49
2019-04-28T14:28:58.537Z,15.41
2019-04-28T14:31:25.472Z,15.33
2019-04-28T14:33:52.405Z,15.24
2019-04-28T14:36:19.518Z,15.11
2019-04-28T14:38:46.429Z,15.09
2019-04-28T14:41:13.449Z,15.04
2019-04-28T14:43:40.398Z,15.02
2019-04-28T14:46:12.650Z,14.99
2019-04-28T14:48:39.586Z,14.99
2019-04-28T14:51:06.670Z,15.22
2019-04-28T14:53:33.678Z,15.53
2019-04-28T14:56:00.649Z,15.75
2019-04-28T14:58:27.965Z,15.98
2019-04-28T15:01:00.308Z,16.26
2019-04-28T15:03:28.474Z,16.56
2019-04-28T15:06:30.233Z,16.72
2019-04-28T15:09:07.621Z,16.91
2019-04-28T15:11:47.317Z,16.67
2019-04-28T15:14:17.525Z,16.53
2019-04-28T15:16:44.501Z,16.35
2019-04-28T15:19:11.455Z,16.09
2019-04-28T15:21:38.503Z,16.05
2019-04-28T15:24:05.551Z,15.91
2019-04-28T15:26:32.517Z,15.72
2019-04-28T15:28:59.501Z,15.62
2019-04-28T15:31:26.521Z,15.43
2019-04-28T15:33:53.592Z,15.35
2019-04-28T15:36:20.548Z,15.24
2019-04-28T15:38:47.551Z,15.13
2019-04-28T15:41:21.551Z,14.99
2019-04-28T15:43:43.364Z,14.88
2019-04-28T15:46:10.391Z,14.86
2019-04-28T15:48:37.704Z,14.88
2019-04-28T15:51:04.810Z,14.88
2019-04-28T15:53:34.113Z,14.83
2019-04-28T15:56:08.455Z,14.79
2019-04-28T15:58:36.468Z,14.78
2019-04-28T16:01:03.727Z,14.75
2019-04-28T16:03:30.674Z,14.76
2019-04-28T16:05:59.890Z,14.75
2019-04-28T16:08:26.505Z,14.76
2019-04-28T16:10:53.429Z,14.66
2019-04-28T16:13:23.355Z,14.66
2019-04-28T16:15:50.289Z,14.62
2019-04-28T16:18:17.217Z,14.55
2019-04-28T16:20:44.341Z,14.42
2019-04-28T16:23:11.296Z,14.27
2019-04-28T16:25:38.218Z,14.19
2019-04-28T16:28:05.208Z,14.13
2019-04-28T16:30:32.269Z,14.09
2019-04-28T16:32:59.212Z,14.07
2019-04-28T16:35:26.263Z,13.98
2019-04-28T16:37:53.158Z,13.93
2019-04-28T16:40:20.200Z,13.84
2019-04-28T16:42:51.822Z,13.80
2019-04-28T16:45:19.434Z,13.63
2019-04-28T16:47:46.414Z,13.62
2019-04-28T16:50:13.456Z,13.73
2019-04-28T16:52:40.417Z,14.00
2019-04-28T16:55:14.865Z,14.29
2019-04-28T16:58:07.394Z,14.57
2019-04-28T17:00:52.575Z,14.76
2019-04-28T17:03:19.666Z,14.84
2019-04-28T17:05:46.652Z,14.90
2019-04-28T17:08:13.604Z,14.93
2019-04-28T17:10:40.571Z,14.86
2019-04-28T17:13:07.502Z,14.59
2019-04-28T17:15:36.094Z,14.29
2019-04-28T17:18:03.080Z,14.05
2019-04-28T17:20:30.058Z,13.78
2019-04-28T17:22:57.005Z,13.57
2019-04-28T17:25:24.917Z,13.35
2019-04-28T17:27:51.860Z,13.11
2019-04-28T17:30:19.605Z,12.92
2019-04-28T17:32:46.625Z,12.78
2019-04-28T17:35:13.776Z,12.66
2019-04-28T17:37:40.742Z,12.42
2019-04-28T17:40:07.839Z,12.28
2019-04-28T17:42:34.896Z,12.11
2019-04-28T17:45:01.945Z,12.01
2019-04-28T17:47:28.983Z,11.93
2019-04-28T17:49:55.935Z,11.80
2019-04-28T17:52:23.187Z,11.70
2019-04-28T17:54:50.165Z,11.62
2019-04-28T17:57:17.244Z,11.50
2019-04-28T17:59:47.887Z,11.38
2019-04-28T18:02:47.445Z,11.27
2019-04-28T18:05:25.219Z,11.17
2019-04-28T18:07:56.618Z,11.05
2019-04-28T18:10:24.558Z,10.91
2019-04-28T18:13:00.342Z,10.80
2019-04-28T18:15:38.638Z,10.70
2019-04-28T18:18:15.073Z,10.65
2019-04-28T18:20:43.244Z,10.54
2019-04-28T18:23:10.206Z,10.41
2019-04-28T18:25:37.227Z,10.29
2019-04-28T18:28:04.211Z,10.17
2019-04-28T18:30:33.951Z,10.09
2019-04-28T18:33:30.716Z,9.98
2019-04-28T18:36:06.210Z,9.83
2019-04-28T18:38:40.112Z,9.67
2019-04-28T18:41:26.878Z,9.59
2019-04-28T18:44:07.361Z,9.52
2019-04-28T18:46:34.361Z,9.43
2019-04-28T18:49:01.321Z,9.34
2019-04-28T18:51:30.135Z,9.27
2019-04-28T18:53:57.096Z,9.16
2019-04-28T18:56:24.106Z,9.07
2019-04-28T18:58:51.058Z,8.94
2019-04-28T19:01:28.587Z,8.85
2019-04-28T19:03:55.581Z,8.79
2019-04-28T19:06:22.541Z,8.72
2019-04-28T19:09:01.145Z,8.64
2019-04-28T19:11:42.610Z,8.54
2019-04-28T19:14:15.513Z,8.43
2019-04-28T19:17:05.087Z,8.36
2019-04-28T19:19:33.262Z,8.28
2019-04-28T19:22:00.263Z,8.22
2019-04-28T19:24:27.836Z,8.19
2019-04-28T19:26:54.848Z,8.15
2019-04-28T19:29:21.911Z,8.13
2019-04-28T19:31:48.906Z,8.11
2019-04-28T19:34:15.890Z,8.08
2019-04-28T19:36:42.892Z,8.06
2019-04-28T19:39:11.827Z,8.04
2019-04-28T19:41:59.234Z,7.94
2019-04-28T19:44:26.313Z,7.87
2019-04-28T19:46:55.135Z,7.77
2019-04-28T19:49:22.966Z,7.69
2019-04-28T19:51:51.036Z,7.63
2019-04-28T19:54:19.924Z,7.57
2019-04-28T19:56:53.906Z,7.53
2019-04-28T19:59:27.951Z,7.51
2019-04-28T20:02:34.418Z,7.48
2019-04-28T20:05:01.465Z,7.48
2019-04-28T20:07:28.605Z,7.46
2019-04-28T20:09:56.026Z,7.45
2019-04-28T20:12:23.060Z,7.36
2019-04-28T20:14:50.202Z,7.27
2019-04-28T20:17:17.500Z,7.17
2019-04-28T20:19:44.459Z,7.13
2019-04-28T20:22:11.536Z,7.11
2019-04-28T20:24:46.946Z,7.13
2019-04-28T20:27:07.558Z,7.10
2019-04-28T20:29:36.537Z,7.06
2019-04-28T20:32:03.696Z,6.96
2019-04-28T20:34:30.688Z,6.87
2019-04-28T20:37:13.321Z,6.83
2019-04-28T20:39:40.471Z,6.81
2019-04-28T20:42:26.321Z,6.76
2019-04-28T20:44:53.500Z,6.73
2019-04-28T20:47:20.521Z,6.71
2019-04-28T20:49:47.548Z,6.68
2019-04-28T20:52:14.535Z,6.64
2019-04-28T20:54:59.744Z,6.60
2019-04-28T20:57:26.700Z,6.57
2019-04-28T20:59:53.668Z,6.55
2019-04-28T21:02:20.770Z,6.51
2019-04-28T21:04:48.919Z,6.46
2019-04-28T21:07:16.970Z,6.40
2019-04-28T21:09:45.872Z,6.33
2019-04-28T21:12:12.857Z,6.29
2019-04-28T21:14:39.984Z,6.26
2019-04-28T21:17:06.994Z,6.24
2019-04-28T21:19:34.033Z,6.23
2019-04-28T21:22:01.182Z,6.17
2019-04-28T21:24:28.332Z,6.12
2019-04-28T21:26:55.411Z,6.09
2019-04-28T21:29:22.392Z,6.07
2019-04-28T21:31:49.360Z,6.06
2019-04-28T21:34:16.343Z,6.06
2019-04-28T21:36:45.114Z,6.06
2019-04-28T21:39:12.212Z,6.04
2019-04-28T21:41:39.150Z,5.98
2019-04-28T21:44:25.779Z,5.96
2019-04-28T21:46:58.032Z,5.94
2019-04-28T21:49:29.435Z,5.81
2019-04-28T21:51:56.389Z,5.63
2019-04-28T21:54:23.628Z,5.59
2019-04-28T21:56:50.743Z,5.58
2019-04-28T21:59:17.831Z,5.51
2019-04-28T22:01:44.788Z,5.48
2019-04-28T22:04:13.618Z,5.43
2019-04-28T22:06:40.568Z,5.45
2019-04-28T22:09:07.736Z,5.49
2019-04-28T22:11:34.886Z,5.50
2019-04-28T22:14:28.574Z,5.49
2019-04-28T22:16:55.675Z,5.49
2019-04-28T22:19:22.634Z,5.46
2019-04-28T22:21:49.685Z,5.44
2019-04-28T22:24:25.262Z,5.40
2019-04-28T22:27:27.484Z,5.38
2019-04-28T22:29:54.491Z,5.29
2019-04-28T22:32:21.468Z,5.25
2019-04-28T22:34:48.407Z,5.25
2019-04-28T22:37:18.497Z,5.22
2019-04-28T22:39:47.090Z,5.12
2019-04-28T22:42:14.237Z,4.99
2019-04-28T22:44:41.260Z,4.97
2019-04-28T22:47:08.375Z,4.91
2019-04-28T22:49:35.334Z,4.87
2019-04-28T22:52:02.346Z,4.87
2019-04-28T22:54:42.102Z,4.86
2019-04-28T22:57:28.141Z,4.83
2019-04-28T22:59:55.517Z,4.85
2019-04-28T23:02:22.815Z,4.85
2019-04-28T23:04:56.632Z,4.85
2019-04-28T23:07:23.719Z,4.82
2019-04-28T23:09:50.696Z,4.78
2019-04-28T23:12:17.681Z,4.78
2019-04-28T23:14:49.171Z,4.75
2019-04-28T23:17:19.363Z,4.74
2019-04-28T23:19:46.373Z,4.71
2019-04-28T23:22:46.984Z,4.69
2019-04-28T23:25:12.392Z,4.71
2019-04-28T23:27:39.450Z,4.73
2019-04-28T23:30:07.348Z,4.73
2019-04-28T23:32:34.319Z,4.66
2019-04-28T23:35:01.379Z,4.54
2019-04-28T23:37:28.353Z,4.45
2019-04-28T23:39:55.417Z,4.41
2019-04-28T23:42:53.691Z,4.41
2019-04-28T23:45:27.052Z,4.41
2019-04-28T23:47:54.174Z,4.39
2019-04-28T23:50:28.480Z,4.39
2019-04-28T23:53:10.455Z,4.38
2019-04-28T23:55:37.439Z,4.36
2019-04-28T23:58:04.504Z,4.34
